Time;durP1;ratioP1;P1;durP2;ratioP2;P2;SDS_P1;SDS_P2;PMS_P1;PMS_P2;Temp;Humidity;BMP_temperature;BMP_pressure;BME280_temperature;BME280_humidity;BME280_pressure;Samples;Min_cycle;Max_cycle;Signal;HPM_P1;HPM_P2
2021/07/02 00:01:17;;;;;;;0.85;0.20;;;18.90;68.90;;;;;;5050622;28;20028;-80
2021/07/02 00:03:43;;;;;;;0.30;0.20;;;18.90;68.60;;;;;;5069029;28;20063;-80
2021/07/02 00:06:09;;;;;;;2.47;0.50;;;19.10;68.40;;;;;;5068520;28;20025;-78
2021/07/02 00:08:35;;;;;;;0.85;0.20;;;19.00;68.30;;;;;;5050585;28;20040;-80
2021/07/02 00:11:01;;;;;;;2.55;0.20;;;19.10;68.60;;;;;;5050537;28;20145;-80
2021/07/02 00:13:26;;;;;;;0.98;0.20;;;19.10;69.80;;;;;;5050702;28;20024;-80
2021/07/02 00:15:52;;;;;;;0.30;0.20;;;19.10;69.30;;;;;;5068670;28;20035;-78
2021/07/02 00:18:17;;;;;;;0.32;0.20;;;19.10;70.00;;;;;;5068479;28;20089;-79
2021/07/02 00:20:43;;;;;;;0.30;0.22;;;19.10;69.10;;;;;;5050668;28;20028;-80
2021/07/02 00:23:09;;;;;;;0.57;0.20;;;19.10;68.70;;;;;;5050309;28;20020;-79
2021/07/02 00:25:37;;;;;;;3.55;0.28;;;19.10;68.30;;;;;;5069860;28;20130;-80
2021/07/02 00:28:05;;;;;;;2.05;0.30;;;19.10;68.40;;;;;;5072485;28;20028;-80
2021/07/02 00:30:32;;;;;;;3.90;0.20;;;19.10;68.40;;;;;;5054564;28;20038;-80
2021/07/02 00:32:57;;;;;;;0.30;0.20;;;19.10;68.40;;;;;;5054214;28;20084;-81
2021/07/02 00:35:23;;;;;;;2.25;0.28;;;19.10;68.50;;;;;;5054225;28;20558;-79
2021/07/02 00:37:48;;;;;;;0.50;0.20;;;19.10;68.50;;;;;;5072199;28;20035;-79
2021/07/02 00:40:14;;;;;;;0.45;0.10;;;19.10;68.50;;;;;;5072174;28;20064;-78
2021/07/02 00:42:40;;;;;;;0.60;0.20;;;19.10;68.70;;;;;;5054362;28;20648;-78
2021/07/02 00:45:06;;;;;;;0.70;0.20;;;19.10;68.80;;;;;;5072139;28;20493;-80
2021/07/02 00:47:32;;;;;;;3.72;0.22;;;19.10;69.00;;;;;;5072146;28;20497;-79
2021/07/02 00:49:57;;;;;;;0.40;0.20;;;19.00;69.10;;;;;;5054034;28;20043;-78
2021/07/02 00:52:23;;;;;;;0.85;0.20;;;19.00;69.10;;;;;;5054006;28;20025;-79
2021/07/02 00:54:50;;;;;;;0.50;0.30;;;19.10;69.20;;;;;;5071957;28;20409;-80
2021/07/02 00:57:16;;;;;;;0.93;0.20;;;19.00;69.30;;;;;;5054142;28;20400;-78
2021/07/02 00:59:42;;;;;;;2.28;0.30;;;19.10;69.50;;;;;;5054048;28;20039;-80
2021/07/02 01:02:08;;;;;;;0.85;0.25;;;19.10;69.60;;;;;;5053949;28;20031;-80
2021/07/02 01:04:34;;;;;;;0.50;0.20;;;19.10;69.40;;;;;;5054116;28;20036;-80
2021/07/02 01:07:00;;;;;;;0.73;0.32;;;19.10;69.30;;;;;;5053678;28;20501;-79
2021/07/02 01:09:27;;;;;;;1.55;0.20;;;19.10;69.20;;;;;;5053626;28;20488;-79
2021/07/02 01:11:53;;;;;;;0.22;0.20;;;19.20;69.30;;;;;;5053632;28;20027;-79
2021/07/02 01:14:19;;;;;;;0.30;0.10;;;19.20;69.20;;;;;;5053596;28;20063;-79
2021/07/02 01:16:45;;;;;;;0.30;0.20;;;19.20;69.40;;;;;;5053639;28;20028;-79
2021/07/02 01:19:12;;;;;;;5.13;0.40;;;19.30;69.50;;;;;;5053643;28;20024;-79
2021/07/02 01:21:38;;;;;;;0.90;0.20;;;19.30;69.50;;;;;;5053402;28;20032;-78
2021/07/02 01:24:04;;;;;;;0.13;0.10;;;19.30;69.40;;;;;;5053293;28;20028;-79
2021/07/02 01:26:30;;;;;;;0.77;0.22;;;19.40;69.50;;;;;;5053279;28;20054;-79
2021/07/02 01:28:56;;;;;;;0.45;0.30;;;19.40;69.60;;;;;;5071263;28;20066;-79
2021/07/02 01:31:22;;;;;;;0.28;0.20;;;19.30;69.90;;;;;;5071153;28;20024;-80
2021/07/02 01:33:47;;;;;;;0.77;0.20;;;19.30;70.10;;;;;;5052175;28;20037;-79
2021/07/02 01:36:19;;;;;;;2.03;0.20;;;19.20;70.90;;;;;;5051722;28;20025;-79
2021/07/02 01:38:45;;;;;;;0.40;0.20;;;19.20;71.30;;;;;;5052037;28;20060;-78
2021/07/02 01:41:10;;;;;;;0.50;0.30;;;19.10;71.50;;;;;;5051993;28;20481;-79
2021/07/02 01:43:36;;;;;;;0.85;0.30;;;19.10;71.40;;;;;;5069892;28;20086;-79
2021/07/02 01:46:02;;;;;;;0.43;0.25;;;19.00;71.30;;;;;;5069921;28;20063;-80
2021/07/02 01:48:28;;;;;;;1.08;0.30;;;19.00;71.50;;;;;;5051793;28;20041;-78
2021/07/02 01:50:53;;;;;;;1.55;0.55;;;19.00;71.70;;;;;;5069863;28;20582;-79
2021/07/02 01:53:19;;;;;;;0.65;0.20;;;19.00;71.50;;;;;;5051932;28;20039;-80
2021/07/02 01:55:45;;;;;;;1.27;0.30;;;19.00;71.40;;;;;;5069875;28;20029;-80
2021/07/02 01:58:10;;;;;;;0.52;0.20;;;19.00;71.40;;;;;;5051794;28;20024;-79
2021/07/02 02:00:36;;;;;;;0.82;0.30;;;19.00;71.20;;;;;;5051842;28;20024;-78
2021/07/02 02:03:02;;;;;;;3.42;0.25;;;19.00;70.70;;;;;;5051627;28;20488;-79
2021/07/02 02:05:28;;;;;;;0.25;0.20;;;19.00;70.70;;;;;;5051530;28;20043;-79
2021/07/02 02:07:53;;;;;;;0.20;0.20;;;19.00;70.50;;;;;;5051776;28;20086;-79
2021/07/02 02:10:19;;;;;;;1.20;0.20;;;19.10;70.40;;;;;;5051119;28;20021;-78
2021/07/02 02:12:45;;;;;;;0.30;0.20;;;19.10;70.30;;;;;;5051383;28;20029;-79
2021/07/02 02:15:11;;;;;;;1.00;0.20;;;19.20;70.30;;;;;;5069463;28;20096;-79
2021/07/02 02:17:36;;;;;;;2.95;0.25;;;19.20;70.40;;;;;;5069431;28;20042;-79
2021/07/02 02:20:07;;;;;;;0.82;0.20;;;19.20;70.30;;;;;;5069589;28;20436;-79
2021/07/02 02:22:33;;;;;;;2.17;0.90;;;19.20;70.30;;;;;;5069278;28;20386;-79
2021/07/02 02:24:59;;;;;;;0.68;0.30;;;19.20;70.20;;;;;;5051347;28;20040;-79
2021/07/02 02:27:25;;;;;;;0.50;0.30;;;19.20;70.20;;;;;;5051302;28;20059;-79
2021/07/02 02:29:51;;;;;;;0.50;0.20;;;19.20;70.00;;;;;;5051334;28;20105;-78
2021/07/02 02:32:18;;;;;;;0.65;0.30;;;19.20;70.00;;;;;;5029606;28;1144849;-78
2021/07/02 02:34:43;;;;;;;2.28;0.30;;;19.20;70.20;;;;;;5052046;28;20036;-78
2021/07/02 02:37:09;;;;;;;0.20;0.20;;;19.10;70.20;;;;;;5052131;28;20043;-78
2021/07/02 02:39:35;;;;;;;2.10;0.30;;;19.10;70.30;;;;;;5070052;28;20029;-80
2021/07/02 02:42:00;;;;;;;0.70;0.22;;;19.20;70.30;;;;;;5052228;28;20036;-79
2021/07/02 02:44:26;;;;;;;1.30;0.40;;;19.10;70.20;;;;;;5069896;28;20071;-80
2021/07/02 02:46:52;;;;;;;1.85;0.30;;;19.10;70.30;;;;;;5069821;28;20052;-79
2021/07/02 02:49:17;;;;;;;0.50;0.20;;;19.10;70.50;;;;;;5050913;28;20029;-80
2021/07/02 02:51:43;;;;;;;0.77;0.30;;;19.00;70.30;;;;;;5051757;28;20028;-80
2021/07/02 02:54:09;;;;;;;0.63;0.28;;;19.00;70.00;;;;;;5051886;28;20028;-79
2021/07/02 02:56:35;;;;;;;2.00;0.30;;;19.00;69.80;;;;;;5051727;28;20029;-78
2021/07/02 02:59:01;;;;;;;3.80;0.30;;;19.10;69.70;;;;;;5069494;28;20097;-79
2021/07/02 03:01:27;;;;;;;1.65;0.43;;;19.10;69.60;;;;;;5069371;28;20036;-79
2021/07/02 03:03:52;;;;;;;0.52;0.30;;;19.10;69.60;;;;;;5051455;28;20024;-80
2021/07/02 03:06:18;;;;;;;0.50;0.30;;;19.10;69.40;;;;;;5069364;28;20115;-78
2021/07/02 03:08:44;;;;;;;0.93;0.73;;;19.20;69.40;;;;;;5069367;28;20413;-79
2021/07/02 03:11:09;;;;;;;0.50;0.20;;;19.20;69.20;;;;;;5069374;28;20020;-80
2021/07/02 03:13:35;;;;;;;0.20;0.20;;;19.20;69.30;;;;;;5051438;28;20028;-79
2021/07/02 03:16:01;;;;;;;1.48;0.50;;;19.30;69.30;;;;;;5051398;28;20024;-79
2021/07/02 03:18:26;;;;;;;2.50;0.30;;;19.30;69.40;;;;;;5051261;28;20473;-80
2021/07/02 03:20:52;;;;;;;2.28;0.30;;;19.30;69.50;;;;;;5069112;28;20031;-81
2021/07/02 03:23:18;;;;;;;0.52;0.30;;;19.40;69.60;;;;;;5051381;28;20028;-80
2021/07/02 03:25:43;;;;;;;0.55;0.28;;;19.40;69.50;;;;;;5051230;28;20025;-79
2021/07/02 03:28:09;;;;;;;1.15;0.30;;;19.40;69.20;;;;;;5051010;28;20401;-79
2021/07/02 03:30:34;;;;;;;1.17;0.20;;;19.40;68.70;;;;;;5051245;28;20501;-79
2021/07/02 03:33:00;;;;;;;4.32;0.30;;;19.40;68.40;;;;;;5051255;28;20483;-79
2021/07/02 03:35:26;;;;;;;0.30;0.20;;;19.50;68.50;;;;;;5069262;28;20031;-80
2021/07/02 03:37:52;;;;;;;0.55;0.30;;;19.40;68.20;;;;;;5069234;28;20726;-80
2021/07/02 03:40:17;;;;;;;1.60;0.50;;;19.50;68.20;;;;;;5051335;28;20043;-80
2021/07/02 03:42:43;;;;;;;0.88;0.30;;;19.50;68.30;;;;;;5068957;28;20485;-80
2021/07/02 03:45:09;;;;;;;1.85;0.63;;;19.50;68.20;;;;;;5050906;28;20078;-80
2021/07/02 03:47:35;;;;;;;1.20;0.30;;;19.50;68.30;;;;;;5068643;28;20032;-80
2021/07/02 03:50:00;;;;;;;1.42;0.30;;;19.50;68.20;;;;;;5050925;28;20036;-80
2021/07/02 03:52:26;;;;;;;1.20;0.40;;;19.50;68.90;;;;;;5068824;28;20036;-80
2021/07/02 03:54:52;;;;;;;1.48;0.22;;;19.50;69.80;;;;;;5068690;28;20030;-80
2021/07/02 03:57:21;;;;;;;4.18;0.35;;;19.50;70.90;;;;;;5068697;28;20032;-80
2021/07/02 03:59:48;;;;;;;0.60;0.30;;;19.40;71.70;;;;;;5050543;28;20029;-80
2021/07/02 04:02:14;;;;;;;0.60;0.30;;;19.30;72.00;;;;;;5068781;28;20413;-79
2021/07/02 04:04:41;;;;;;;0.47;0.30;;;19.30;72.20;;;;;;5068720;28;20028;-81
2021/07/02 04:07:08;;;;;;;1.17;0.30;;;19.30;72.20;;;;;;5050774;28;20489;-80
2021/07/02 04:09:34;;;;;;;2.15;0.30;;;19.40;72.30;;;;;;5050619;28;20050;-80
2021/07/02 04:12:01;;;;;;;1.17;0.40;;;19.40;72.20;;;;;;5050774;28;20029;-80
2021/07/02 04:14:28;;;;;;;0.60;0.30;;;19.50;71.90;;;;;;5050662;28;20054;-80
2021/07/02 04:16:54;;;;;;;0.40;0.30;;;19.50;72.50;;;;;;5068371;28;20540;-80
2021/07/02 04:19:21;;;;;;;1.30;0.40;;;19.50;72.70;;;;;;5050734;28;20120;-80
2021/07/02 04:21:47;;;;;;;8.38;0.80;;;19.50;74.60;;;;;;5050608;28;20033;-80
2021/07/02 04:24:13;;;;;;;0.52;0.30;;;19.40;76.60;;;;;;5050627;28;20036;-79
2021/07/02 04:26:39;;;;;;;1.70;0.20;;;19.30;77.60;;;;;;5050578;28;20028;-80
2021/07/02 04:29:04;;;;;;;3.92;0.45;;;19.30;78.30;;;;;;5068302;28;20039;-79
2021/07/02 04:31:30;;;;;;;2.35;0.30;;;19.30;80.30;;;;;;5068375;28;20041;-80
2021/07/02 04:33:56;;;;;;;1.80;0.40;;;19.20;80.20;;;;;;5050379;28;20119;-80
2021/07/02 04:36:22;;;;;;;3.63;0.73;;;19.10;81.30;;;;;;5050303;28;20485;-82
2021/07/02 04:38:47;;;;;;;4.18;0.60;;;19.10;83.50;;;;;;5050043;28;20078;-82
2021/07/02 04:41:13;;;;;;;1.65;0.75;;;18.90;85.00;;;;;;5050832;28;20043;-80
2021/07/02 04:43:38;;;;;;;2.35;1.05;;;18.80;86.30;;;;;;5050510;28;20096;-79
2021/07/02 04:46:04;;;;;;;5.07;0.40;;;18.70;88.00;;;;;;5049515;28;20540;-79
2021/07/02 04:48:30;;;;;;;2.85;0.60;;;18.70;87.80;;;;;;5050083;28;20059;-81
2021/07/02 04:50:55;;;;;;;2.55;0.60;;;18.50;88.90;;;;;;5068210;28;20017;-81
2021/07/02 04:53:21;;;;;;;5.35;0.55;;;18.50;89.00;;;;;;5050610;28;20044;-80
2021/07/02 04:55:47;;;;;;;2.78;0.50;;;18.40;88.20;;;;;;5050463;28;20020;-82
2021/07/02 04:58:13;;;;;;;2.30;0.45;;;18.20;89.70;;;;;;5050304;28;20502;-84
2021/07/02 05:00:39;;;;;;;1.88;0.50;;;18.10;89.90;;;;;;5050314;28;20103;-83
2021/07/02 05:03:05;;;;;;;1.45;0.50;;;18.10;90.10;;;;;;5068231;28;20116;-82
2021/07/02 05:05:32;;;;;;;1.15;0.40;;;18.00;90.30;;;;;;5050254;28;20032;-83
2021/07/02 05:07:59;;;;;;;0.90;0.50;;;17.90;90.70;;;;;;5068300;28;20157;-82
2021/07/02 05:10:25;;;;;;;1.33;0.50;;;17.90;90.80;;;;;;5067994;28;20103;-81
2021/07/02 05:12:51;;;;;;;9.40;0.60;;;17.90;90.60;;;;;;5072261;28;20127;-80
2021/07/02 05:15:16;;;;;;;3.72;0.77;;;17.90;91.30;;;;;;5055179;28;20032;-82
2021/07/02 05:17:43;;;;;;;3.50;0.85;;;17.90;91.50;;;;;;5071719;28;20036;-83
2021/07/02 05:20:09;;;;;;;3.63;0.45;;;17.90;91.80;;;;;;5071624;28;20032;-81
2021/07/02 05:22:35;;;;;;;4.78;0.60;;;17.80;91.90;;;;;;5053814;28;20079;-81
2021/07/02 05:25:02;;;;;;;2.17;0.60;;;17.80;91.70;;;;;;5071538;28;20040;-80
2021/07/02 05:27:28;;;;;;;4.97;0.57;;;17.70;91.80;;;;;;5071479;28;20089;-81
2021/07/02 05:29:53;;;;;;;1.80;0.50;;;17.70;91.90;;;;;;5053643;28;20036;-80
2021/07/02 05:32:19;;;;;;;1.10;0.45;;;17.70;91.80;;;;;;5053747;28;20059;-81
2021/07/02 05:34:45;;;;;;;5.03;0.73;;;17.70;91.60;;;;;;5053715;28;20078;-83
2021/07/02 05:37:10;;;;;;;1.52;0.47;;;17.70;91.70;;;;;;5071429;28;20056;-82
2021/07/02 05:39:36;;;;;;;3.42;0.45;;;17.70;91.30;;;;;;5053471;28;20032;-79
2021/07/02 05:42:02;;;;;;;1.98;0.60;;;17.70;91.10;;;;;;5071449;28;20024;-80
2021/07/02 05:44:27;;;;;;;1.33;0.50;;;17.80;90.40;;;;;;5053617;28;20501;-83
2021/07/02 05:46:53;;;;;;;1.25;0.40;;;17.70;91.20;;;;;;5071256;28;20033;-82
2021/07/02 05:49:19;;;;;;;1.48;0.40;;;17.60;91.20;;;;;;5071364;28;20036;-81
2021/07/02 05:51:45;;;;;;;2.20;0.60;;;17.60;91.20;;;;;;5071164;28;20020;-82
2021/07/02 05:54:12;;;;;;;1.52;0.65;;;17.70;91.50;;;;;;5052978;28;20412;-82
2021/07/02 05:56:37;;;;;;;1.02;0.40;;;17.70;91.90;;;;;;5071046;28;20388;-81
2021/07/02 05:59:03;;;;;;;1.17;0.50;;;17.70;91.90;;;;;;5052985;28;20029;-81
2021/07/02 06:01:29;;;;;;;1.90;0.47;;;17.70;91.90;;;;;;5053313;28;20514;-82
2021/07/02 06:03:55;;;;;;;3.45;0.50;;;17.70;91.90;;;;;;5052427;28;20028;-81
2021/07/02 06:06:21;;;;;;;1.58;0.50;;;17.70;91.80;;;;;;5052603;28;20082;-82
2021/07/02 06:08:47;;;;;;;3.50;0.68;;;17.70;92.00;;;;;;5052773;28;20037;-80
2021/07/02 06:11:13;;;;;;;3.08;0.90;;;17.70;92.40;;;;;;5070506;28;20073;-81
2021/07/02 06:13:39;;;;;;;2.33;0.65;;;17.70;92.60;;;;;;5052461;28;20119;-80
2021/07/02 06:16:05;;;;;;;1.90;0.60;;;17.70;92.90;;;;;;5053225;28;20123;-88
2021/07/02 06:18:31;;;;;;;3.50;0.55;;;17.70;93.00;;;;;;5047983;28;20032;-87
2021/07/02 06:20:57;;;;;;;1.63;0.50;;;17.60;93.00;;;;;;5073442;28;20032;-86
2021/07/02 06:23:24;;;;;;;4.15;0.70;;;17.60;93.20;;;;;;5053238;28;20405;-85
2021/07/02 06:25:50;;;;;;;2.10;0.55;;;17.60;93.00;;;;;;5054392;28;20504;-85
2021/07/02 06:28:16;;;;;;;7.47;0.90;;;17.60;93.20;;;;;;5054235;28;20068;-86
2021/07/02 06:30:43;;;;;;;9.75;1.33;;;17.60;93.30;;;;;;5054430;28;20035;-85
2021/07/02 06:33:09;;;;;;;19.10;1.92;;;17.50;93.50;;;;;;5071926;28;20186;-84
2021/07/02 06:35:36;;;;;;;21.33;2.03;;;17.50;93.70;;;;;;5054230;28;20035;-86
2021/07/02 06:38:02;;;;;;;29.20;2.35;;;17.50;93.70;;;;;;5071858;28;20036;-85
2021/07/02 06:40:27;;;;;;;24.05;1.80;;;17.40;93.80;;;;;;5054852;28;20174;-87
2021/07/02 06:42:54;;;;;;;11.50;0.98;;;17.40;94.30;;;;;;5054979;28;20084;-88
2021/07/02 06:45:20;;;;;;;5.25;0.65;;;17.40;94.50;;;;;;5055644;28;20032;-86
2021/07/02 06:48:05;;;;;;;5.28;0.88;;;17.30;94.50;;;;;;5054907;28;20413;-88
2021/07/02 06:50:37;;;;;;;8.10;1.13;;;17.20;94.10;;;;;;5054847;28;20527;-88
2021/07/02 06:53:04;;;;;;;4.18;0.77;;;17.20;94.70;;;;;;5054682;28;20215;-88
2021/07/02 06:55:31;;;;;;;3.92;0.68;;;17.20;95.40;;;;;;5054248;28;20020;-86
2021/07/02 06:57:57;;;;;;;10.43;1.08;;;17.30;95.50;;;;;;5054425;28;20056;-86
2021/07/02 07:00:24;;;;;;;7.40;1.67;;;17.30;95.70;;;;;;5054412;28;20028;-87
2021/07/02 07:02:50;;;;;;;12.68;1.65;;;17.30;95.50;;;;;;5054302;28;20024;-87
2021/07/02 07:05:17;;;;;;;5.88;0.80;;;17.30;95.90;;;;;;5053274;28;20428;-82
2021/07/02 07:07:43;;;;;;;5.85;1.10;;;17.30;95.60;;;;;;5052894;28;20412;-85
2021/07/02 07:10:10;;;;;;;18.63;2.05;;;17.40;95.70;;;;;;5052816;28;20027;-85
2021/07/02 07:12:36;;;;;;;15.40;1.92;;;17.40;95.60;;;;;;5053050;28;20063;-85
2021/07/02 07:15:03;;;;;;;5.07;2.05;;;17.40;95.90;;;;;;5053546;28;20075;-85
2021/07/02 07:17:30;;;;;;;9.05;1.77;;;17.30;95.60;;;;;;5070764;28;20024;-86
2021/07/02 07:19:55;;;;;;;9.13;1.92;;;17.30;95.70;;;;;;5054130;28;20028;-87
2021/07/02 07:22:21;;;;;;;9.18;1.42;;;17.30;95.90;;;;;;5071715;28;20047;-87
2021/07/02 07:24:47;;;;;;;5.18;1.88;;;17.30;95.90;;;;;;5071353;28;20103;-88
2021/07/02 07:27:13;;;;;;;4.13;1.80;;;17.20;95.50;;;;;;5053675;28;20075;-86
2021/07/02 07:29:39;;;;;;;6.60;1.77;;;17.20;95.90;;;;;;5052745;28;20128;-85
2021/07/02 07:32:05;;;;;;;7.75;1.70;;;17.20;96.00;;;;;;5052939;28;20098;-86
2021/07/02 07:37:03;;;;;;;4.88;1.40;;;17.20;95.30;;;;;;5071743;28;20107;-87
2021/07/02 07:39:29;;;;;;;5.95;2.00;;;17.10;95.70;;;;;;5054681;28;20032;-90
2021/07/02 07:41:55;;;;;;;5.05;1.50;;;17.20;96.00;;;;;;5054103;28;20081;-86
2021/07/02 07:44:20;;;;;;;9.63;2.38;;;17.10;96.00;;;;;;5053047;28;20489;-84
2021/07/02 07:46:46;;;;;;;8.00;1.50;;;17.20;96.30;;;;;;5052591;28;20769;-89
2021/07/02 07:49:11;;;;;;;7.28;1.98;;;17.20;96.40;;;;;;5052786;28;20062;-89
2021/07/02 07:54:29;;;;;;;2.50;1.20;;;17.20;96.50;;;;;;5034308;28;20072;-88
2021/07/02 07:56:55;;;;;;;3.75;1.25;;;17.30;96.00;;;;;;5053014;28;20070;-88
2021/07/02 07:59:25;;;;;;;2.30;1.30;;;17.30;95.60;;;;;;5053128;28;20027;-85
2021/07/02 08:01:51;;;;;;;3.47;1.02;;;17.40;96.00;;;;;;5053093;28;20102;-86
2021/07/02 08:04:16;;;;;;;6.72;1.20;;;17.40;95.80;;;;;;5052595;28;20481;-85
2021/07/02 08:06:43;;;;;;;7.35;1.15;;;17.40;95.90;;;;;;5053661;28;20485;-86
2021/07/02 08:09:10;;;;;;;5.05;1.63;;;17.40;95.70;;;;;;5052274;28;20032;-86
2021/07/02 08:11:35;;;;;;;2.85;1.40;;;17.40;95.90;;;;;;5052510;28;20052;-85
2021/07/02 08:14:01;;;;;;;4.63;1.80;;;17.40;96.00;;;;;;5052394;28;20054;-86
2021/07/02 08:16:27;;;;;;;4.10;1.48;;;17.50;96.20;;;;;;5052658;28;20035;-86
2021/07/02 08:18:52;;;;;;;4.15;1.25;;;17.50;96.00;;;;;;5052670;28;20033;-85
2021/07/02 08:21:18;;;;;;;5.20;1.67;;;17.50;95.70;;;;;;5052701;28;20153;-86
2021/07/02 08:23:44;;;;;;;3.85;1.50;;;17.40;95.30;;;;;;5052750;28;20102;-85
2021/07/02 08:26:12;;;;;;;8.45;1.95;;;17.50;94.90;;;;;;5052798;28;20025;-85
2021/07/02 08:31:23;;;;;;;9.15;1.48;;;17.40;95.20;;;;;;5071074;28;20447;-87
2021/07/02 08:33:48;;;;;;;5.80;1.73;;;17.40;95.20;;;;;;5052884;28;20036;-85
2021/07/02 08:36:14;;;;;;;6.22;1.65;;;17.60;95.70;;;;;;5052869;28;20029;-86
2021/07/02 08:38:39;;;;;;;4.85;1.67;;;17.60;95.30;;;;;;5053202;28;20029;-86
2021/07/02 08:41:07;;;;;;;4.72;1.40;;;17.70;95.60;;;;;;5052797;28;20711;-85
2021/07/02 08:43:33;;;;;;;4.25;1.85;;;17.80;95.60;;;;;;5052939;28;20416;-85
2021/07/02 08:45:58;;;;;;;5.65;2.08;;;17.90;95.20;;;;;;5053197;28;20233;-87
2021/07/02 08:48:26;;;;;;;5.95;1.88;;;17.90;94.70;;;;;;5056618;28;20178;-85
2021/07/02 08:50:53;;;;;;;8.73;1.90;;;18.00;94.90;;;;;;5048882;28;20523;-78
2021/07/02 08:53:18;;;;;;;4.07;1.90;;;18.10;94.90;;;;;;5054142;28;20024;-75
2021/07/02 08:55:44;;;;;;;4.05;2.03;;;18.10;94.70;;;;;;5071945;28;20050;-76
2021/07/02 08:58:14;;;;;;;5.35;1.83;;;18.20;94.50;;;;;;5054179;28;20056;-75
2021/07/02 09:00:44;;;;;;;5.28;2.10;;;18.30;94.10;;;;;;5072133;28;20044;-77
2021/07/02 09:03:36;;;;;;;8.50;2.58;;;18.30;94.70;;;;;;5072118;28;20103;-78
2021/07/02 09:06:17;;;;;;;8.68;1.58;;;18.40;94.50;;;;;;5071923;28;20039;-78
2021/07/02 09:08:58;;;;;;;7.00;1.60;;;18.50;94.40;;;;;;5053814;28;20044;-77
2021/07/02 09:11:35;;;;;;;3.30;2.17;;;18.60;94.10;;;;;;5071942;28;20024;-75
2021/07/02 09:14:03;;;;;;;2.58;1.48;;;18.70;94.10;;;;;;5071868;28;20027;-77
2021/07/02 09:16:38;;;;;;;4.35;1.63;;;18.80;94.00;;;;;;5071906;28;20889;-77
2021/07/02 09:19:19;;;;;;;4.35;1.23;;;19.00;93.00;;;;;;5071759;28;20279;-77
2021/07/02 09:21:45;;;;;;;2.22;1.02;;;19.10;92.20;;;;;;5071689;28;20024;-77
2021/07/02 09:24:38;;;;;;;3.15;1.20;;;19.30;92.30;;;;;;5053610;28;20120;-76
2021/07/02 09:27:24;;;;;;;4.47;1.30;;;19.40;91.10;;;;;;5053675;28;20038;-78
2021/07/02 09:30:12;;;;;;;7.53;1.33;;;19.40;90.70;;;;;;5053622;28;20044;-78
2021/07/02 09:32:42;;;;;;;4.30;0.93;;;19.60;91.00;;;;;;5071311;28;20048;-77
2021/07/02 09:35:09;;;;;;;2.70;0.70;;;19.70;89.30;;;;;;5053400;28;20117;-77
2021/07/02 09:37:57;;;;;;;4.25;1.10;;;19.70;87.90;;;;;;5053395;28;20036;-77
2021/07/02 09:40:26;;;;;;;4.97;1.10;;;19.80;88.20;;;;;;5070930;28;20047;-77
2021/07/02 09:43:04;;;;;;;4.00;1.50;;;19.80;88.80;;;;;;5071450;28;20013;-77
2021/07/02 09:45:32;;;;;;;6.15;1.35;;;20.00;90.40;;;;;;5053302;28;20039;-78
2021/07/02 09:48:06;;;;;;;5.93;1.30;;;20.20;90.30;;;;;;5053206;28;20432;-75
2021/07/02 09:50:32;;;;;;;5.72;1.45;;;20.30;89.60;;;;;;5053446;28;20394;-77
2021/07/02 09:53:09;;;;;;;3.95;1.05;;;20.40;88.40;;;;;;5071483;28;20524;-76
2021/07/02 09:55:45;;;;;;;3.97;1.08;;;20.40;88.10;;;;;;5071318;28;20078;-76
2021/07/02 09:58:18;;;;;;;5.82;1.30;;;20.20;86.50;;;;;;5052796;28;20513;-76
2021/07/02 10:00:48;;;;;;;2.28;1.10;;;20.30;87.90;;;;;;5053061;28;20497;-77
2021/07/02 10:03:21;;;;;;;3.63;1.20;;;20.40;86.50;;;;;;5051966;28;20052;-77
2021/07/02 10:05:51;;;;;;;4.00;1.27;;;20.40;86.00;;;;;;5052041;28;20116;-77
2021/07/02 10:08:18;;;;;;;3.22;1.20;;;20.40;85.30;;;;;;5069609;28;20302;-76
2021/07/02 10:10:45;;;;;;;2.88;1.10;;;20.50;86.40;;;;;;5069928;28;20036;-75
2021/07/02 10:13:11;;;;;;;1.60;1.20;;;20.70;87.60;;;;;;5070927;28;20029;-77
2021/07/02 10:15:37;;;;;;;3.65;0.85;;;20.90;87.40;;;;;;5052671;28;20040;-77
2021/07/02 10:18:06;;;;;;;4.65;1.15;;;21.00;85.40;;;;;;5052652;28;20493;-76
2021/07/02 10:20:33;;;;;;;3.03;1.02;;;21.20;84.50;;;;;;5052819;28;20044;-76
2021/07/02 10:23:00;;;;;;;4.15;1.20;;;21.30;85.00;;;;;;5052517;28;20033;-78
2021/07/02 10:25:30;;;;;;;2.20;0.90;;;21.40;83.60;;;;;;5052589;28;20025;-76
2021/07/02 10:27:57;;;;;;;4.60;1.08;;;21.50;83.30;;;;;;5052727;28;20068;-77
2021/07/02 10:30:23;;;;;;;1.90;0.80;;;21.60;82.60;;;;;;5070366;28;20028;-77
2021/07/02 10:32:52;;;;;;;4.47;1.27;;;21.60;80.10;;;;;;5070190;28;20056;-77
2021/07/02 10:35:18;;;;;;;3.08;1.00;;;21.70;79.20;;;;;;5070671;28;20039;-75
2021/07/02 10:37:51;;;;;;;4.90;1.13;;;21.60;79.70;;;;;;5070230;28;20190;-77
2021/07/02 10:40:41;;;;;;;2.20;0.60;;;21.50;80.90;;;;;;5070178;28;20027;-77
2021/07/02 10:43:13;;;;;;;4.40;0.70;;;21.50;82.90;;;;;;5070503;28;20051;-76
2021/07/02 10:46:07;;;;;;;2.50;0.90;;;21.70;82.40;;;;;;5071076;28;20035;-79
2021/07/02 10:48:54;;;;;;;1.63;0.50;;;21.90;80.40;;;;;;5070083;28;20139;-79
2021/07/02 10:51:32;;;;;;;1.73;0.88;;;22.10;79.10;;;;;;5052101;28;20031;-77
2021/07/02 10:54:21;;;;;;;2.95;0.85;;;22.30;76.90;;;;;;5051983;28;20139;-77
2021/07/02 10:56:52;;;;;;;5.55;1.02;;;22.40;76.80;;;;;;5069844;28;20023;-78
2021/07/02 10:59:19;;;;;;;2.72;0.73;;;22.40;76.50;;;;;;5069896;28;20031;-79
2021/07/02 11:02:06;;;;;;;3.20;0.65;;;22.50;76.90;;;;;;5069916;28;20121;-79
2021/07/02 11:04:36;;;;;;;1.15;0.60;;;22.70;77.10;;;;;;5069879;28;20028;-78
2021/07/02 11:07:23;;;;;;;1.63;0.55;;;22.60;75.50;;;;;;5051730;28;20027;-77
2021/07/02 11:09:52;;;;;;;2.00;0.60;;;22.70;74.50;;;;;;5069248;28;20069;-78
2021/07/02 11:12:21;;;;;;;0.80;0.60;;;22.60;73.60;;;;;;5051697;28;20268;-78
2021/07/02 11:17:32;;;;;;;2.70;0.98;;;22.60;75.10;;;;;;5069576;28;20028;-78
2021/07/02 11:20:07;;;;;;;3.83;1.05;;;22.60;75.70;;;;;;5051488;28;20044;-77
2021/07/02 11:22:35;;;;;;;2.33;0.60;;;22.40;76.20;;;;;;5069468;28;20029;-79
2021/07/02 11:25:25;;;;;;;1.52;0.50;;;22.40;74.80;;;;;;5069519;28;20031;-78
2021/07/02 11:27:55;;;;;;;4.32;0.77;;;22.60;75.40;;;;;;5069479;28;20059;-78
2021/07/02 11:30:24;;;;;;;3.85;0.75;;;22.70;74.10;;;;;;5051202;28;20056;-78
2021/07/02 11:32:51;;;;;;;1.40;0.70;;;22.70;73.90;;;;;;5069014;28;20051;-77
2021/07/02 11:35:28;;;;;;;3.00;0.60;;;22.60;74.60;;;;;;5069237;28;20578;-78
2021/07/02 11:38:01;;;;;;;1.13;0.57;;;22.70;76.20;;;;;;5051187;28;20119;-78
2021/07/02 11:40:50;;;;;;;2.17;0.60;;;22.70;76.60;;;;;;5069078;28;20056;-78
2021/07/02 11:43:33;;;;;;;1.58;0.68;;;22.80;74.50;;;;;;5041161;28;20036;-78
2021/07/02 11:46:06;;;;;;;1.23;0.73;;;22.90;72.70;;;;;;5051001;28;20489;-79
2021/07/02 11:48:35;;;;;;;1.25;0.45;;;23.00;70.90;;;;;;5050981;28;20060;-78
2021/07/02 11:51:05;;;;;;;0.88;0.80;;;23.00;72.60;;;;;;5069011;28;20020;-79
2021/07/02 11:53:32;;;;;;;4.88;0.43;;;23.10;73.00;;;;;;5050906;28;20032;-76
2021/07/02 11:56:14;;;;;;;0.70;0.40;;;23.10;74.20;;;;;;5050957;28;20099;-80
2021/07/02 11:59:03;;;;;;;1.42;0.80;;;23.40;74.90;;;;;;5051082;28;20074;-78
2021/07/02 12:01:29;;;;;;;0.63;0.40;;;23.50;73.10;;;;;;5068939;28;20025;-79
2021/07/02 12:04:00;;;;;;;1.73;0.47;;;23.50;71.60;;;;;;5051348;28;20028;-78
2021/07/02 12:06:31;;;;;;;1.08;0.47;;;23.80;73.80;;;;;;5068893;28;20078;-79
2021/07/02 12:09:17;;;;;;;1.65;0.50;;;24.00;74.40;;;;;;5050634;28;20040;-79
2021/07/02 12:11:58;;;;;;;1.40;0.50;;;24.20;72.60;;;;;;5068904;28;20070;-78
2021/07/02 12:14:36;;;;;;;1.02;0.57;;;24.40;72.70;;;;;;5050353;28;20193;-76
2021/07/02 12:17:03;;;;;;;2.40;0.68;;;24.70;72.40;;;;;;5050812;28;20033;-75
2021/07/02 12:19:34;;;;;;;2.67;0.60;;;24.90;70.40;;;;;;5050653;28;20036;-76
2021/07/02 12:22:13;;;;;;;1.70;0.50;;;25.20;71.40;;;;;;5073016;28;20111;-76
2021/07/02 12:24:41;;;;;;;0.88;0.52;;;25.50;68.00;;;;;;5073037;28;20067;-76
2021/07/02 12:27:19;;;;;;;3.90;0.50;;;25.80;67.60;;;;;;5073404;28;20029;-75
2021/07/02 12:29:46;;;;;;;2.85;1.02;;;26.10;64.90;;;;;;5054714;28;20044;-76
2021/07/02 12:32:14;;;;;;;1.52;0.60;;;26.00;63.40;;;;;;5054582;28;20626;-75
2021/07/02 12:34:40;;;;;;;1.02;0.47;;;25.90;64.10;;;;;;5054054;28;20497;-76
2021/07/02 12:37:14;;;;;;;1.85;0.40;;;25.70;64.20;;;;;;5071366;28;20033;-77
2021/07/02 12:39:46;;;;;;;0.82;0.52;;;25.60;64.70;;;;;;5066259;28;20009;-76
2021/07/02 12:42:14;;;;;;;3.50;0.70;;;25.60;62.80;;;;;;5052272;28;20056;-75
2021/07/02 12:44:45;;;;;;;0.90;0.70;;;25.50;62.90;;;;;;5049556;28;20104;-77
2021/07/02 12:47:12;;;;;;;1.83;0.80;;;25.30;62.20;;;;;;5071828;28;20545;-75
2021/07/02 12:49:48;;;;;;;8.43;0.80;;;25.30;60.40;;;;;;5070783;28;20024;-74
2021/07/02 12:55:24;;;;;;;3.15;0.80;;;25.10;61.80;;;;;;5066099;28;20029;-76
2021/07/02 12:57:49;;;;;;;1.00;0.70;;;25.10;62.40;;;;;;5066897;28;20171;-76
2021/07/02 13:00:21;;;;;;;1.48;1.00;;;25.10;61.10;;;;;;5070708;28;20091;-77
2021/07/02 13:02:49;;;;;;;1.95;1.00;;;25.10;61.80;;;;;;5052870;28;20012;-76
2021/07/02 13:05:23;;;;;;;1.85;0.70;;;25.10;62.40;;;;;;5070991;28;20020;-76